createdAt,value
2018-06-03T00:03:45.186Z,101427.92
2018-06-03T00:08:46.693Z,101431.67
2018-06-03T00:13:48.070Z,101438.39
2018-06-03T00:18:49.436Z,101437.96
2018-06-03T00:23:50.783Z,101427.63
2018-06-03T00:28:52.149Z,101432.78
2018-06-03T00:33:53.465Z,101424.13
2018-06-03T00:38:54.805Z,101424.89
2018-06-03T00:43:56.213Z,101431.62
2018-06-03T00:48:57.566Z,101432.91
2018-06-03T00:53:59.634Z,101424.94
2018-06-03T00:59:01.006Z,101424.17
2018-06-03T01:04:02.361Z,101433.14
2018-06-03T01:09:04.475Z,101431.25
2018-06-03T01:14:06.548Z,101438.09
2018-06-03T01:19:07.896Z,101432.95
2018-06-03T01:24:09.238Z,101427.98
2018-06-03T01:29:10.546Z,101420.68
2018-06-03T01:34:12.611Z,101422.97
2018-06-03T01:39:13.980Z,101422.41
2018-06-03T01:44:15.320Z,101419.12
2018-06-03T01:49:16.649Z,101422.89
2018-06-03T01:54:17.988Z,101426.07
2018-06-03T01:59:19.317Z,101419.41
2018-06-03T02:04:20.625Z,101415.29
2018-06-03T02:09:21.966Z,101414.72
2018-06-03T02:14:23.282Z,101408.97
2018-06-03T02:19:24.614Z,101418.14
2018-06-03T02:24:25.941Z,101410.39
2018-06-03T02:29:28.000Z,101421.56
2018-06-03T02:34:29.334Z,101415.48
2018-06-03T02:39:31.419Z,101423.87
2018-06-03T02:44:32.742Z,101417.41
2018-06-03T02:49:34.838Z,101419.52
2018-06-03T02:54:36.951Z,101411.80
2018-06-03T02:59:39.043Z,101412.27
2018-06-03T03:04:40.354Z,101412.16
2018-06-03T03:09:42.434Z,101413.39
2018-06-03T03:14:43.823Z,101414.06
2018-06-03T03:19:45.169Z,101410.98
2018-06-03T03:24:46.515Z,101421.80
2018-06-03T03:29:47.830Z,101431.39
2018-06-03T03:34:49.186Z,101435.41
2018-06-03T03:39:50.501Z,101425.52
2018-06-03T03:44:52.759Z,101426.20
2018-06-03T03:49:54.098Z,101422.53
2018-06-03T03:54:56.170Z,101427.93
2018-06-03T03:59:57.538Z,101426.25
2018-06-03T04:04:58.869Z,101425.03
2018-06-03T04:10:00.205Z,101419.78
2018-06-03T04:15:01.529Z,101420.13
2018-06-03T04:20:02.887Z,101428.06
2018-06-03T04:25:04.237Z,101425.77
2018-06-03T04:30:06.297Z,101435.11
2018-06-03T04:35:07.634Z,101441.39
2018-06-03T04:40:09.690Z,101447.05
2018-06-03T04:45:11.010Z,101452.82
2018-06-03T04:50:12.330Z,101453.17
2018-06-03T04:55:13.644Z,101448.66
2018-06-03T05:00:15.053Z,101460.30
2018-06-03T05:05:16.436Z,101456.08
2018-06-03T05:10:17.914Z,101455.69
2018-06-03T05:15:19.369Z,101460.98
2018-06-03T05:20:21.442Z,101446.80
2018-06-03T05:25:22.769Z,101450.19
2018-06-03T05:30:24.817Z,101450.81
2018-06-03T05:35:26.138Z,101455.02
2018-06-03T05:40:27.445Z,101460.40
2018-06-03T05:45:28.785Z,101454.45
2018-06-03T05:50:30.102Z,101452.41
2018-06-03T05:55:31.404Z,101459.55
2018-06-03T06:00:32.728Z,101460.02
2018-06-03T06:05:34.054Z,101471.36
2018-06-03T06:10:35.414Z,101472.00
2018-06-03T06:15:36.760Z,101465.69
2018-06-03T06:20:38.100Z,101470.18
2018-06-03T06:25:39.413Z,101470.42
2018-06-03T06:30:40.737Z,101467.32
2018-06-03T06:35:42.812Z,101469.41
2018-06-03T06:40:44.149Z,101463.83
2018-06-03T06:45:46.223Z,101474.25
2018-06-03T06:50:47.539Z,101473.84
2018-06-03T06:55:49.627Z,101478.70
2018-06-03T07:00:51.121Z,101476.63
2018-06-03T07:05:52.461Z,101482.71
2018-06-03T07:10:53.881Z,101489.31
2018-06-03T07:15:55.205Z,101484.27
2018-06-03T07:20:56.513Z,101481.02
2018-06-03T07:25:58.596Z,101478.56
2018-06-03T07:30:59.917Z,101476.28
2018-06-03T07:36:01.226Z,101477.91
2018-06-03T07:41:02.581Z,101470.79
2018-06-03T07:46:04.659Z,101485.61
2018-06-03T07:51:06.004Z,101483.84
2018-06-03T07:56:07.318Z,101481.25
2018-06-03T08:01:08.638Z,101486.06
2018-06-03T08:06:10.726Z,101485.16
2018-06-03T08:11:12.070Z,101486.69
2018-06-03T08:16:13.462Z,101483.42
2018-06-03T08:21:14.815Z,101488.02
2018-06-03T08:26:16.150Z,101489.01
2018-06-03T08:31:17.463Z,101482.42
2018-06-03T08:36:18.796Z,101480.92
2018-06-03T08:41:20.155Z,101479.98
2018-06-03T08:46:21.497Z,101475.17
2018-06-03T08:51:22.821Z,101472.90
2018-06-03T08:56:24.168Z,101481.02
2018-06-03T09:01:25.508Z,101487.89
2018-06-03T09:06:26.853Z,101491.01
2018-06-03T09:11:28.211Z,101489.88
2018-06-03T09:16:30.278Z,101491.34
2018-06-03T09:21:31.627Z,101485.07
2018-06-03T09:26:33.672Z,101488.12
2018-06-03T09:31:34.991Z,101484.58
2018-06-03T09:36:36.331Z,101476.05
2018-06-03T09:41:37.662Z,101471.05
2018-06-03T09:46:38.977Z,101476.47
2018-06-03T09:51:41.045Z,101490.11
2018-06-03T09:56:42.395Z,101485.84
2018-06-03T10:01:43.715Z,101480.09
2018-06-03T10:06:45.044Z,101483.09
2018-06-03T10:11:46.366Z,101490.05
2018-06-03T10:16:47.682Z,101478.39
2018-06-03T10:21:48.997Z,101473.48
2018-06-03T10:26:50.345Z,101480.94
2018-06-03T10:31:51.670Z,101477.93
2018-06-03T10:36:52.994Z,101475.54
2018-06-03T10:41:55.472Z,101490.00
2018-06-03T10:46:56.854Z,101485.75
2018-06-03T10:51:58.185Z,101473.87
2018-06-03T10:56:59.515Z,101467.36
2018-06-03T11:02:00.965Z,101457.52
2018-06-03T11:07:02.381Z,101459.55
2018-06-03T11:12:04.843Z,101456.34
2018-06-03T11:17:06.185Z,101458.11
2018-06-03T11:22:07.601Z,101446.77
2018-06-03T11:27:08.935Z,101455.28
2018-06-03T11:32:10.257Z,101451.28
2018-06-03T11:37:12.320Z,101449.29
2018-06-03T11:42:13.637Z,101447.77
2018-06-03T11:47:14.950Z,101444.02
2018-06-03T11:52:17.017Z,101441.68
2018-06-03T11:57:18.367Z,101436.93
2018-06-03T12:02:19.689Z,101440.85
2018-06-03T12:07:21.001Z,101443.29
2018-06-03T12:12:22.330Z,101433.47
2018-06-03T12:17:23.659Z,101416.97
2018-06-03T12:22:24.971Z,101426.52
2018-06-03T12:27:26.290Z,101429.75
2018-06-03T12:32:28.351Z,101423.83
2018-06-03T12:37:29.722Z,101422.42
2018-06-03T12:42:31.051Z,101417.95
2018-06-03T12:47:32.361Z,101408.23
2018-06-03T12:52:34.424Z,101404.52
2018-06-03T12:57:35.807Z,101406.02
2018-06-03T13:02:37.170Z,101402.18
2018-06-03T13:07:38.498Z,101400.45
2018-06-03T13:12:39.861Z,101395.00
2018-06-03T13:17:41.182Z,101388.97
2018-06-03T13:22:42.527Z,101386.56
2018-06-03T13:27:43.892Z,101385.85
2018-06-03T13:32:45.242Z,101374.20
2018-06-03T13:37:46.591Z,101368.08
2018-06-03T13:42:47.938Z,101375.77
2018-06-03T13:47:49.281Z,101367.91
2018-06-03T13:52:50.608Z,101362.87
2018-06-03T13:57:51.966Z,101353.61
2018-06-03T14:02:53.302Z,101349.48
2018-06-03T14:07:54.653Z,101351.86
2018-06-03T14:12:56.007Z,101347.06
2018-06-03T14:17:57.363Z,101337.34
2018-06-03T14:22:58.691Z,101334.22
2018-06-03T14:28:00.023Z,101334.20
2018-06-03T14:33:01.366Z,101331.56
2018-06-03T14:38:32.098Z,101333.78
2018-06-03T14:43:35.060Z,101332.09
2018-06-03T14:48:38.074Z,101324.42
2018-06-03T14:53:41.068Z,101317.48
2018-06-03T14:58:44.071Z,101314.18
2018-06-03T15:03:47.145Z,101310.69
2018-06-03T15:08:50.185Z,101310.23
2018-06-03T15:13:53.215Z,101306.84
2018-06-03T15:18:56.225Z,101298.24
2018-06-03T15:23:59.226Z,101289.23
2018-06-03T15:29:02.276Z,101284.95
2018-06-03T15:34:05.291Z,101284.44
2018-06-03T15:39:08.495Z,101278.03
2018-06-03T15:44:11.535Z,101269.39
2018-06-03T15:49:14.643Z,101270.47
2018-06-03T15:54:17.713Z,101266.98
2018-06-03T15:59:20.739Z,101259.95
2018-06-03T16:04:23.730Z,101252.24
2018-06-03T16:09:26.719Z,101247.41
2018-06-03T16:14:29.717Z,101251.16
2018-06-03T16:19:32.763Z,101239.18
2018-06-03T16:24:35.758Z,101237.72
2018-06-03T16:29:38.882Z,101231.78
2018-06-03T16:34:41.911Z,101229.01
2018-06-03T16:39:44.931Z,101226.30
2018-06-03T16:44:47.954Z,101231.83
2018-06-03T16:49:50.969Z,101224.92
2018-06-03T16:54:53.971Z,101222.16
2018-06-03T16:59:56.994Z,101219.58
2018-06-03T17:05:00.026Z,101213.46
2018-06-03T17:10:03.162Z,101208.31
2018-06-03T17:15:06.195Z,101204.77
2018-06-03T17:20:09.206Z,101204.15
2018-06-03T17:25:12.211Z,101200.43
2018-06-03T17:30:15.348Z,101200.53
2018-06-03T17:35:18.460Z,101193.98
2018-06-03T17:40:21.537Z,101192.19
2018-06-03T17:45:24.579Z,101189.77
2018-06-03T17:50:27.818Z,101180.34
2018-06-03T17:55:30.846Z,101184.16
2018-06-03T18:00:33.950Z,101179.57
2018-06-03T18:05:36.983Z,101171.14
2018-06-03T18:10:40.006Z,101173.63
2018-06-03T18:15:43.084Z,101177.72
2018-06-03T18:20:46.185Z,101162.38
2018-06-03T18:25:49.317Z,101166.47
2018-06-03T18:30:52.387Z,101168.11
2018-06-03T18:35:55.440Z,101162.56
2018-06-03T18:40:58.472Z,101161.48
2018-06-03T18:46:01.576Z,101151.23
2018-06-03T18:51:05.018Z,101152.52
2018-06-03T18:56:08.359Z,101153.81
2018-06-03T19:01:11.809Z,101158.02
2018-06-03T19:06:15.854Z,101158.75
2018-06-03T19:11:18.958Z,101155.98
2018-06-03T19:16:21.987Z,101158.41
2018-06-03T19:21:25.067Z,101157.31
2018-06-03T19:26:28.152Z,101154.29
2018-06-03T19:31:31.202Z,101161.80
2018-06-03T19:36:34.254Z,101155.08
2018-06-03T19:41:37.523Z,101159.52
2018-06-03T19:46:40.523Z,101164.89
2018-06-03T19:51:43.592Z,101167.82
2018-06-03T19:56:46.984Z,101167.95
2018-06-03T20:01:50.313Z,101171.63
2018-06-03T20:06:53.326Z,101162.13
2018-06-03T20:11:56.396Z,101166.24
2018-06-03T20:16:59.502Z,101160.79
2018-06-03T20:22:02.545Z,101161.52
2018-06-03T20:27:05.597Z,101151.20
2018-06-03T20:32:08.939Z,101160.05
2018-06-03T20:37:12.123Z,101163.48
2018-06-03T20:42:15.126Z,101170.89
2018-06-03T20:47:18.226Z,101185.66
2018-06-03T20:52:21.250Z,101178.48
2018-06-03T20:57:24.308Z,101184.89
2018-06-03T21:02:27.308Z,101184.00
2018-06-03T21:07:30.325Z,101180.33
2018-06-03T21:12:33.353Z,101180.30
2018-06-03T21:17:36.673Z,101181.23
2018-06-03T21:22:40.014Z,101181.52
2018-06-03T21:27:42.988Z,101183.08
2018-06-03T21:32:45.992Z,101182.80
2018-06-03T21:37:49.004Z,101182.27
2018-06-03T21:42:52.023Z,101185.07
2018-06-03T21:47:55.022Z,101177.84
2018-06-03T21:52:58.026Z,101170.55
2018-06-03T21:58:01.097Z,101178.12
2018-06-03T22:03:04.202Z,101172.27
2018-06-03T22:08:07.239Z,101179.84
2018-06-03T22:13:10.291Z,101181.89
2018-06-03T22:18:13.336Z,101182.23
2018-06-03T22:23:16.328Z,101183.89
2018-06-03T22:28:19.306Z,101183.37
2018-06-03T22:33:22.304Z,101178.27
2018-06-03T22:38:25.290Z,101179.14
2018-06-03T22:43:28.273Z,101183.15
2018-06-03T22:48:31.266Z,101180.75
2018-06-03T22:53:34.250Z,101185.39
2018-06-03T22:58:37.241Z,101179.03
2018-06-03T23:03:40.298Z,101180.73
2018-06-03T23:08:43.338Z,101186.08
2018-06-03T23:13:46.338Z,101180.30
2018-06-03T23:18:49.342Z,101178.86
2018-06-03T23:23:52.380Z,101171.59
2018-06-03T23:28:55.385Z,101154.30
2018-06-03T23:33:58.381Z,101158.53
2018-06-03T23:39:01.390Z,101151.95
2018-06-03T23:44:04.418Z,101150.44
2018-06-03T23:49:07.410Z,101156.91
2018-06-03T23:54:11.181Z,101154.15
2018-06-03T23:59:14.203Z,101155.19
